sensor_id;sensor_type;location;lat;lon;timestamp;P1;durP1;ratioP1;P2;durP2;ratioP2
57832;SDS011;43667;53.036;6.740;2023-04-03T00:00:07;3.28;;;1.05;;
57832;SDS011;43667;53.036;6.740;2023-04-03T00:02:33;2.33;;;0.70;;
57832;SDS011;43667;53.036;6.740;2023-04-03T00:04:59;2.15;;;0.80;;
57832;SDS011;43667;53.036;6.740;2023-04-03T00:07:25;2.10;;;0.98;;
57832;SDS011;43667;53.036;6.740;2023-04-03T00:09:51;1.98;;;0.90;;
57832;SDS011;43667;53.036;6.740;2023-04-03T00:12:16;2.22;;;0.93;;
57832;SDS011;43667;53.036;6.740;2023-04-03T00:14:42;2.13;;;1.17;;
57832;SDS011;43667;53.036;6.740;2023-04-03T00:17:07;1.42;;;0.77;;
57832;SDS011;43667;53.036;6.740;2023-04-03T00:19:33;3.10;;;0.93;;
57832;SDS011;43667;53.036;6.740;2023-04-03T00:21:59;4.13;;;1.17;;
57832;SDS011;43667;53.036;6.740;2023-04-03T00:24:24;2.70;;;1.15;;
57832;SDS011;43667;53.036;6.740;2023-04-03T00:26:50;1.60;;;0.90;;
57832;SDS011;43667;53.036;6.740;2023-04-03T00:29:15;3.15;;;0.95;;
57832;SDS011;43667;53.036;6.740;2023-04-03T00:31:41;2.92;;;0.80;;
57832;SDS011;43667;53.036;6.740;2023-04-03T00:34:06;1.90;;;0.93;;
57832;SDS011;43667;53.036;6.740;2023-04-03T00:36:32;3.63;;;1.42;;
57832;SDS011;43667;53.036;6.740;2023-04-03T00:38:58;2.38;;;0.90;;
57832;SDS011;43667;53.036;6.740;2023-04-03T00:41:23;2.40;;;1.10;;
57832;SDS011;43667;53.036;6.740;2023-04-03T00:43:50;2.47;;;1.20;;
57832;SDS011;43667;53.036;6.740;2023-04-03T00:46:16;2.40;;;1.00;;
57832;SDS011;43667;53.036;6.740;2023-04-03T00:48:45;1.70;;;1.05;;
57832;SDS011;43667;53.036;6.740;2023-04-03T00:51:13;2.95;;;1.00;;
57832;SDS011;43667;53.036;6.740;2023-04-03T00:53:46;2.38;;;1.02;;
57832;SDS011;43667;53.036;6.740;2023-04-03T00:56:16;3.33;;;1.35;;
57832;SDS011;43667;53.036;6.740;2023-04-03T00:58:46;4.28;;;1.30;;
57832;SDS011;43667;53.036;6.740;2023-04-03T01:01:18;6.90;;;1.80;;
57832;SDS011;43667;53.036;6.740;2023-04-03T01:03:48;3.47;;;1.20;;
57832;SDS011;43667;53.036;6.740;2023-04-03T01:06:14;3.28;;;1.30;;
57832;SDS011;43667;53.036;6.740;2023-04-03T01:08:42;3.58;;;1.33;;
57832;SDS011;43667;53.036;6.740;2023-04-03T01:11:08;4.05;;;1.27;;
57832;SDS011;43667;53.036;6.740;2023-04-03T01:13:33;3.33;;;1.40;;
57832;SDS011;43667;53.036;6.740;2023-04-03T01:16:03;3.50;;;1.10;;
57832;SDS011;43667;53.036;6.740;2023-04-03T01:18:30;2.97;;;1.13;;
57832;SDS011;43667;53.036;6.740;2023-04-03T01:21:09;3.30;;;1.15;;
57832;SDS011;43667;53.036;6.740;2023-04-03T01:26:18;8.05;;;2.85;;
57832;SDS011;43667;53.036;6.740;2023-04-03T01:28:44;2.75;;;1.15;;
57832;SDS011;43667;53.036;6.740;2023-04-03T01:31:24;6.10;;;1.40;;
57832;SDS011;43667;53.036;6.740;2023-04-03T01:33:57;4.70;;;1.85;;
57832;SDS011;43667;53.036;6.740;2023-04-03T01:36:24;2.65;;;1.15;;
57832;SDS011;43667;53.036;6.740;2023-04-03T01:38:52;4.93;;;1.35;;
57832;SDS011;43667;53.036;6.740;2023-04-03T01:41:19;3.40;;;1.13;;
57832;SDS011;43667;53.036;6.740;2023-04-03T01:43:46;3.30;;;1.40;;
57832;SDS011;43667;53.036;6.740;2023-04-03T01:46:12;3.65;;;1.40;;
57832;SDS011;43667;53.036;6.740;2023-04-03T01:48:39;2.72;;;1.50;;
57832;SDS011;43667;53.036;6.740;2023-04-03T01:51:05;3.05;;;1.23;;
57832;SDS011;43667;53.036;6.740;2023-04-03T01:53:30;2.53;;;1.30;;
57832;SDS011;43667;53.036;6.740;2023-04-03T01:55:56;3.60;;;1.20;;
57832;SDS011;43667;53.036;6.740;2023-04-03T01:58:21;2.75;;;1.38;;
57832;SDS011;43667;53.036;6.740;2023-04-03T02:00:47;4.32;;;1.20;;
57832;SDS011;43667;53.036;6.740;2023-04-03T02:03:13;3.17;;;1.30;;
57832;SDS011;43667;53.036;6.740;2023-04-03T02:05:39;4.18;;;1.35;;
57832;SDS011;43667;53.036;6.740;2023-04-03T02:08:05;3.10;;;1.40;;
57832;SDS011;43667;53.036;6.740;2023-04-03T02:10:31;5.60;;;1.95;;
57832;SDS011;43667;53.036;6.740;2023-04-03T02:12:57;6.15;;;1.30;;
57832;SDS011;43667;53.036;6.740;2023-04-03T02:15:22;5.13;;;1.60;;
57832;SDS011;43667;53.036;6.740;2023-04-03T02:17:48;5.30;;;1.85;;
57832;SDS011;43667;53.036;6.740;2023-04-03T02:20:14;5.82;;;1.77;;
57832;SDS011;43667;53.036;6.740;2023-04-03T02:22:40;3.53;;;1.42;;
57832;SDS011;43667;53.036;6.740;2023-04-03T02:25:05;5.10;;;1.42;;
57832;SDS011;43667;53.036;6.740;2023-04-03T02:27:31;2.20;;;1.15;;
57832;SDS011;43667;53.036;6.740;2023-04-03T02:29:57;3.72;;;1.65;;
57832;SDS011;43667;53.036;6.740;2023-04-03T02:32:22;2.10;;;1.08;;
57832;SDS011;43667;53.036;6.740;2023-04-03T02:34:48;3.45;;;1.40;;
57832;SDS011;43667;53.036;6.740;2023-04-03T02:37:14;2.58;;;1.17;;
57832;SDS011;43667;53.036;6.740;2023-04-03T02:39:40;4.47;;;1.50;;
57832;SDS011;43667;53.036;6.740;2023-04-03T02:42:05;2.53;;;1.40;;
57832;SDS011;43667;53.036;6.740;2023-04-03T02:44:32;4.57;;;1.50;;
57832;SDS011;43667;53.036;6.740;2023-04-03T02:46:57;2.85;;;1.13;;
57832;SDS011;43667;53.036;6.740;2023-04-03T02:49:23;4.00;;;1.60;;
57832;SDS011;43667;53.036;6.740;2023-04-03T02:51:49;5.68;;;1.50;;
57832;SDS011;43667;53.036;6.740;2023-04-03T02:54:15;3.47;;;1.38;;
57832;SDS011;43667;53.036;6.740;2023-04-03T02:56:41;3.95;;;2.40;;
57832;SDS011;43667;53.036;6.740;2023-04-03T02:59:07;5.95;;;1.40;;
57832;SDS011;43667;53.036;6.740;2023-04-03T03:01:32;7.68;;;1.63;;
57832;SDS011;43667;53.036;6.740;2023-04-03T03:03:58;3.88;;;1.52;;
57832;SDS011;43667;53.036;6.740;2023-04-03T03:06:25;4.40;;;1.48;;
57832;SDS011;43667;53.036;6.740;2023-04-03T03:08:50;3.75;;;1.50;;
57832;SDS011;43667;53.036;6.740;2023-04-03T03:11:16;5.13;;;1.55;;
57832;SDS011;43667;53.036;6.740;2023-04-03T03:13:41;4.03;;;1.27;;
57832;SDS011;43667;53.036;6.740;2023-04-03T03:16:07;8.15;;;1.75;;
57832;SDS011;43667;53.036;6.740;2023-04-03T03:18:33;7.65;;;1.65;;
57832;SDS011;43667;53.036;6.740;2023-04-03T03:20:59;6.53;;;1.83;;
57832;SDS011;43667;53.036;6.740;2023-04-03T03:23:26;4.93;;;1.90;;
57832;SDS011;43667;53.036;6.740;2023-04-03T03:25:57;5.88;;;2.00;;
57832;SDS011;43667;53.036;6.740;2023-04-03T03:28:24;4.35;;;1.85;;
57832;SDS011;43667;53.036;6.740;2023-04-03T03:30:50;3.97;;;1.60;;
57832;SDS011;43667;53.036;6.740;2023-04-03T03:33:16;5.60;;;2.00;;
57832;SDS011;43667;53.036;6.740;2023-04-03T03:35:42;5.07;;;1.70;;
57832;SDS011;43667;53.036;6.740;2023-04-03T03:38:08;4.28;;;1.77;;
57832;SDS011;43667;53.036;6.740;2023-04-03T03:40:33;8.80;;;1.92;;
57832;SDS011;43667;53.036;6.740;2023-04-03T03:42:59;8.55;;;2.88;;
57832;SDS011;43667;53.036;6.740;2023-04-03T03:45:25;7.10;;;2.20;;
57832;SDS011;43667;53.036;6.740;2023-04-03T03:47:50;6.38;;;2.10;;
57832;SDS011;43667;53.036;6.740;2023-04-03T03:50:16;5.57;;;2.25;;
57832;SDS011;43667;53.036;6.740;2023-04-03T03:52:41;7.60;;;2.20;;
57832;SDS011;43667;53.036;6.740;2023-04-03T03:55:07;7.35;;;2.65;;
57832;SDS011;43667;53.036;6.740;2023-04-03T03:57:33;4.65;;;2.10;;
57832;SDS011;43667;53.036;6.740;2023-04-03T03:59:58;6.57;;;2.30;;
57832;SDS011;43667;53.036;6.740;2023-04-03T04:02:24;7.80;;;2.38;;
57832;SDS011;43667;53.036;6.740;2023-04-03T04:04:50;6.95;;;2.50;;
57832;SDS011;43667;53.036;6.740;2023-04-03T04:07:15;6.18;;;2.42;;
57832;SDS011;43667;53.036;6.740;2023-04-03T04:09:41;3.45;;;2.55;;
57832;SDS011;43667;53.036;6.740;2023-04-03T04:12:06;7.70;;;2.60;;
57832;SDS011;43667;53.036;6.740;2023-04-03T04:14:32;8.40;;;2.60;;
57832;SDS011;43667;53.036;6.740;2023-04-03T04:16:57;5.80;;;2.78;;
57832;SDS011;43667;53.036;6.740;2023-04-03T04:19:23;6.75;;;2.45;;
57832;SDS011;43667;53.036;6.740;2023-04-03T04:21:49;9.27;;;3.30;;
57832;SDS011;43667;53.036;6.740;2023-04-03T04:24:15;5.47;;;2.30;;
57832;SDS011;43667;53.036;6.740;2023-04-03T04:26:40;7.25;;;2.75;;
57832;SDS011;43667;53.036;6.740;2023-04-03T04:29:06;5.85;;;2.40;;
57832;SDS011;43667;53.036;6.740;2023-04-03T04:31:33;7.38;;;2.60;;
57832;SDS011;43667;53.036;6.740;2023-04-03T04:33:59;9.50;;;2.80;;
57832;SDS011;43667;53.036;6.740;2023-04-03T04:36:25;8.55;;;2.65;;
57832;SDS011;43667;53.036;6.740;2023-04-03T04:38:50;7.07;;;2.70;;
57832;SDS011;43667;53.036;6.740;2023-04-03T04:41:18;10.88;;;2.78;;
57832;SDS011;43667;53.036;6.740;2023-04-03T04:43:51;11.43;;;3.47;;
57832;SDS011;43667;53.036;6.740;2023-04-03T04:46:17;8.45;;;2.92;;
57832;SDS011;43667;53.036;6.740;2023-04-03T04:48:43;7.65;;;3.30;;
57832;SDS011;43667;53.036;6.740;2023-04-03T04:51:09;5.82;;;2.80;;
57832;SDS011;43667;53.036;6.740;2023-04-03T04:53:35;6.53;;;2.25;;
57832;SDS011;43667;53.036;6.740;2023-04-03T04:56:01;8.55;;;2.83;;
57832;SDS011;43667;53.036;6.740;2023-04-03T04:58:27;8.43;;;2.80;;
57832;SDS011;43667;53.036;6.740;2023-04-03T05:00:59;9.40;;;2.85;;
57832;SDS011;43667;53.036;6.740;2023-04-03T05:03:25;10.20;;;2.80;;
57832;SDS011;43667;53.036;6.740;2023-04-03T05:05:50;6.10;;;2.63;;
57832;SDS011;43667;53.036;6.740;2023-04-03T05:08:16;8.60;;;3.00;;
57832;SDS011;43667;53.036;6.740;2023-04-03T05:10:41;8.07;;;2.75;;
57832;SDS011;43667;53.036;6.740;2023-04-03T05:13:07;7.90;;;3.05;;
57832;SDS011;43667;53.036;6.740;2023-04-03T05:15:33;8.45;;;3.08;;
57832;SDS011;43667;53.036;6.740;2023-04-03T05:17:58;10.15;;;3.25;;
57832;SDS011;43667;53.036;6.740;2023-04-03T05:20:24;6.05;;;2.83;;
57832;SDS011;43667;53.036;6.740;2023-04-03T05:22:50;9.23;;;3.17;;
57832;SDS011;43667;53.036;6.740;2023-04-03T05:25:15;11.60;;;3.28;;
57832;SDS011;43667;53.036;6.740;2023-04-03T05:27:41;5.78;;;2.75;;
57832;SDS011;43667;53.036;6.740;2023-04-03T05:30:07;7.32;;;3.00;;
57832;SDS011;43667;53.036;6.740;2023-04-03T05:32:33;6.20;;;3.72;;
57832;SDS011;43667;53.036;6.740;2023-04-03T05:34:58;5.95;;;3.10;;
57832;SDS011;43667;53.036;6.740;2023-04-03T05:37:24;7.38;;;3.15;;
57832;SDS011;43667;53.036;6.740;2023-04-03T05:39:50;11.15;;;3.63;;
57832;SDS011;43667;53.036;6.740;2023-04-03T05:42:16;8.45;;;4.07;;
57832;SDS011;43667;53.036;6.740;2023-04-03T05:44:41;10.02;;;3.60;;
57832;SDS011;43667;53.036;6.740;2023-04-03T05:47:07;10.25;;;3.75;;
57832;SDS011;43667;53.036;6.740;2023-04-03T05:49:33;8.18;;;3.92;;
57832;SDS011;43667;53.036;6.740;2023-04-03T05:51:59;8.27;;;3.45;;
57832;SDS011;43667;53.036;6.740;2023-04-03T05:54:27;9.77;;;4.10;;
57832;SDS011;43667;53.036;6.740;2023-04-03T05:56:53;7.40;;;3.55;;
57832;SDS011;43667;53.036;6.740;2023-04-03T05:59:19;8.82;;;3.85;;
57832;SDS011;43667;53.036;6.740;2023-04-03T06:01:46;11.60;;;3.97;;
57832;SDS011;43667;53.036;6.740;2023-04-03T06:04:12;9.48;;;3.65;;
57832;SDS011;43667;53.036;6.740;2023-04-03T06:06:43;11.90;;;3.95;;
57832;SDS011;43667;53.036;6.740;2023-04-03T06:09:10;8.57;;;3.60;;
57832;SDS011;43667;53.036;6.740;2023-04-03T06:11:36;7.07;;;3.50;;
57832;SDS011;43667;53.036;6.740;2023-04-03T06:14:02;9.75;;;3.60;;
57832;SDS011;43667;53.036;6.740;2023-04-03T06:16:28;7.53;;;3.45;;
57832;SDS011;43667;53.036;6.740;2023-04-03T06:18:54;9.88;;;3.80;;
57832;SDS011;43667;53.036;6.740;2023-04-03T06:21:20;7.05;;;2.92;;
57832;SDS011;43667;53.036;6.740;2023-04-03T06:23:45;9.30;;;3.90;;
57832;SDS011;43667;53.036;6.740;2023-04-03T06:26:11;6.05;;;3.25;;
57832;SDS011;43667;53.036;6.740;2023-04-03T06:28:36;10.52;;;3.20;;
57832;SDS011;43667;53.036;6.740;2023-04-03T06:31:02;9.07;;;3.95;;
57832;SDS011;43667;53.036;6.740;2023-04-03T06:33:28;7.50;;;3.17;;
57832;SDS011;43667;53.036;6.740;2023-04-03T06:35:57;10.00;;;3.38;;
57832;SDS011;43667;53.036;6.740;2023-04-03T06:38:23;9.98;;;3.20;;
57832;SDS011;43667;53.036;6.740;2023-04-03T06:40:49;7.13;;;3.42;;
57832;SDS011;43667;53.036;6.740;2023-04-03T06:43:16;9.88;;;3.40;;
57832;SDS011;43667;53.036;6.740;2023-04-03T06:45:42;8.27;;;3.30;;
57832;SDS011;43667;53.036;6.740;2023-04-03T06:48:07;8.52;;;3.58;;
57832;SDS011;43667;53.036;6.740;2023-04-03T06:50:34;9.43;;;3.28;;
57832;SDS011;43667;53.036;6.740;2023-04-03T06:52:59;7.32;;;2.97;;
57832;SDS011;43667;53.036;6.740;2023-04-03T06:55:26;11.35;;;3.33;;
57832;SDS011;43667;53.036;6.740;2023-04-03T06:57:51;9.20;;;2.90;;
57832;SDS011;43667;53.036;6.740;2023-04-03T07:00:17;6.13;;;2.88;;
57832;SDS011;43667;53.036;6.740;2023-04-03T07:02:43;9.52;;;2.95;;
57832;SDS011;43667;53.036;6.740;2023-04-03T07:05:09;9.30;;;2.90;;
57832;SDS011;43667;53.036;6.740;2023-04-03T07:07:34;7.47;;;2.63;;
57832;SDS011;43667;53.036;6.740;2023-04-03T07:10:00;7.07;;;2.47;;
57832;SDS011;43667;53.036;6.740;2023-04-03T07:12:26;5.70;;;2.38;;
57832;SDS011;43667;53.036;6.740;2023-04-03T07:14:51;7.85;;;3.00;;
57832;SDS011;43667;53.036;6.740;2023-04-03T07:17:17;9.48;;;2.83;;
57832;SDS011;43667;53.036;6.740;2023-04-03T07:19:43;7.38;;;2.63;;
57832;SDS011;43667;53.036;6.740;2023-04-03T07:22:09;7.05;;;3.03;;
57832;SDS011;43667;53.036;6.740;2023-04-03T07:24:36;6.68;;;2.78;;
57832;SDS011;43667;53.036;6.740;2023-04-03T07:27:01;6.38;;;2.60;;
57832;SDS011;43667;53.036;6.740;2023-04-03T07:29:28;11.02;;;3.35;;
57832;SDS011;43667;53.036;6.740;2023-04-03T07:31:53;5.38;;;2.50;;
57832;SDS011;43667;53.036;6.740;2023-04-03T07:34:20;5.35;;;2.08;;
57832;SDS011;43667;53.036;6.740;2023-04-03T07:36:46;6.35;;;2.47;;
57832;SDS011;43667;53.036;6.740;2023-04-03T07:39:11;8.55;;;2.15;;
57832;SDS011;43667;53.036;6.740;2023-04-03T07:41:37;7.68;;;2.60;;
57832;SDS011;43667;53.036;6.740;2023-04-03T07:44:03;6.47;;;2.22;;
57832;SDS011;43667;53.036;6.740;2023-04-03T07:46:30;13.85;;;2.83;;
57832;SDS011;43667;53.036;6.740;2023-04-03T07:48:56;9.95;;;3.40;;
57832;SDS011;43667;53.036;6.740;2023-04-03T07:51:21;4.63;;;1.48;;
57832;SDS011;43667;53.036;6.740;2023-04-03T07:53:49;7.50;;;2.03;;
57832;SDS011;43667;53.036;6.740;2023-04-03T07:56:16;8.55;;;1.98;;
57832;SDS011;43667;53.036;6.740;2023-04-03T07:58:42;5.65;;;1.75;;
57832;SDS011;43667;53.036;6.740;2023-04-03T08:01:07;8.13;;;1.85;;
57832;SDS011;43667;53.036;6.740;2023-04-03T08:03:34;9.43;;;2.92;;
57832;SDS011;43667;53.036;6.740;2023-04-03T08:06:02;6.22;;;1.77;;
57832;SDS011;43667;53.036;6.740;2023-04-03T08:08:29;3.63;;;1.67;;
57832;SDS011;43667;53.036;6.740;2023-04-03T08:10:55;3.78;;;1.90;;
57832;SDS011;43667;53.036;6.740;2023-04-03T08:13:23;4.65;;;1.70;;
57832;SDS011;43667;53.036;6.740;2023-04-03T08:15:48;7.97;;;1.88;;
57832;SDS011;43667;53.036;6.740;2023-04-03T08:18:15;7.07;;;1.88;;
57832;SDS011;43667;53.036;6.740;2023-04-03T08:20:41;6.18;;;1.75;;
57832;SDS011;43667;53.036;6.740;2023-04-03T08:23:07;5.85;;;2.40;;
57832;SDS011;43667;53.036;6.740;2023-04-03T08:25:39;4.32;;;1.77;;
57832;SDS011;43667;53.036;6.740;2023-04-03T08:28:06;6.05;;;1.80;;
57832;SDS011;43667;53.036;6.740;2023-04-03T08:30:32;4.22;;;1.23;;
57832;SDS011;43667;53.036;6.740;2023-04-03T08:33:00;4.57;;;1.20;;
57832;SDS011;43667;53.036;6.740;2023-04-03T08:35:26;3.90;;;1.42;;
57832;SDS011;43667;53.036;6.740;2023-04-03T08:37:52;4.55;;;1.45;;
57832;SDS011;43667;53.036;6.740;2023-04-03T08:40:17;5.07;;;1.60;;
57832;SDS011;43667;53.036;6.740;2023-04-03T08:48:21;3.50;;;1.10;;
57832;SDS011;43667;53.036;6.740;2023-04-03T08:50:58;3.63;;;1.20;;
57832;SDS011;43667;53.036;6.740;2023-04-03T08:53:28;5.90;;;1.50;;
57832;SDS011;43667;53.036;6.740;2023-04-03T08:55:57;4.07;;;1.10;;
57832;SDS011;43667;53.036;6.740;2023-04-03T08:58:28;6.97;;;1.23;;
57832;SDS011;43667;53.036;6.740;2023-04-03T09:01:01;4.53;;;1.52;;
57832;SDS011;43667;53.036;6.740;2023-04-03T09:03:38;3.63;;;1.10;;
57832;SDS011;43667;53.036;6.740;2023-04-03T09:08:40;3.45;;;1.02;;
57832;SDS011;43667;53.036;6.740;2023-04-03T09:11:26;3.35;;;1.20;;
57832;SDS011;43667;53.036;6.740;2023-04-03T09:22:02;3.33;;;0.90;;
57832;SDS011;43667;53.036;6.740;2023-04-03T09:24:50;3.35;;;0.95;;
57832;SDS011;43667;53.036;6.740;2023-04-03T09:27:22;2.42;;;1.02;;
57832;SDS011;43667;53.036;6.740;2023-04-03T09:29:48;1.95;;;0.90;;
57832;SDS011;43667;53.036;6.740;2023-04-03T09:32:29;3.22;;;0.93;;
57832;SDS011;43667;53.036;6.740;2023-04-03T09:34:57;3.85;;;0.90;;
57832;SDS011;43667;53.036;6.740;2023-04-03T09:37:39;2.97;;;1.02;;
57832;SDS011;43667;53.036;6.740;2023-04-03T09:40:29;4.57;;;1.15;;
57832;SDS011;43667;53.036;6.740;2023-04-03T09:42:57;2.35;;;1.02;;
57832;SDS011;43667;53.036;6.740;2023-04-03T09:45:34;3.25;;;1.10;;
57832;SDS011;43667;53.036;6.740;2023-04-03T09:48:05;2.15;;;0.70;;
57832;SDS011;43667;53.036;6.740;2023-04-03T09:50:38;4.25;;;1.00;;
57832;SDS011;43667;53.036;6.740;2023-04-03T09:53:25;3.17;;;0.80;;
57832;SDS011;43667;53.036;6.740;2023-04-03T09:55:51;3.67;;;0.80;;
57832;SDS011;43667;53.036;6.740;2023-04-03T09:58:23;2.55;;;0.90;;
57832;SDS011;43667;53.036;6.740;2023-04-03T10:00:54;4.00;;;1.00;;
57832;SDS011;43667;53.036;6.740;2023-04-03T10:03:26;5.28;;;1.10;;
57832;SDS011;43667;53.036;6.740;2023-04-03T10:05:57;2.75;;;0.82;;
57832;SDS011;43667;53.036;6.740;2023-04-03T10:08:25;2.13;;;0.55;;
57832;SDS011;43667;53.036;6.740;2023-04-03T10:11:12;4.25;;;0.80;;
57832;SDS011;43667;53.036;6.740;2023-04-03T10:13:54;1.60;;;0.50;;
57832;SDS011;43667;53.036;6.740;2023-04-03T10:16:26;3.63;;;0.80;;
57832;SDS011;43667;53.036;6.740;2023-04-03T10:19:01;4.07;;;0.88;;
57832;SDS011;43667;53.036;6.740;2023-04-03T10:34:47;2.15;;;0.43;;
57832;SDS011;43667;53.036;6.740;2023-04-03T10:37:24;5.43;;;0.68;;
57832;SDS011;43667;53.036;6.740;2023-04-03T10:42:55;2.25;;;0.52;;
57832;SDS011;43667;53.036;6.740;2023-04-03T10:45:41;2.95;;;0.60;;
57832;SDS011;43667;53.036;6.740;2023-04-03T10:48:31;1.83;;;0.60;;
57832;SDS011;43667;53.036;6.740;2023-04-03T10:53:44;1.92;;;0.70;;
57832;SDS011;43667;53.036;6.740;2023-04-03T10:58:54;1.80;;;0.50;;
57832;SDS011;43667;53.036;6.740;2023-04-03T11:01:24;2.70;;;0.70;;
57832;SDS011;43667;53.036;6.740;2023-04-03T11:03:59;3.50;;;0.80;;
57832;SDS011;43667;53.036;6.740;2023-04-03T11:06:40;2.38;;;0.70;;
57832;SDS011;43667;53.036;6.740;2023-04-03T11:09:18;3.03;;;0.57;;
57832;SDS011;43667;53.036;6.740;2023-04-03T11:11:45;4.40;;;0.60;;
57832;SDS011;43667;53.036;6.740;2023-04-03T11:16:54;3.00;;;0.60;;
57832;SDS011;43667;53.036;6.740;2023-04-03T11:20:01;1.67;;;0.77;;
57832;SDS011;43667;53.036;6.740;2023-04-03T11:22:41;2.15;;;0.70;;
57832;SDS011;43667;53.036;6.740;2023-04-03T11:30:30;2.35;;;0.65;;
57832;SDS011;43667;53.036;6.740;2023-04-03T11:33:21;3.17;;;0.60;;
57832;SDS011;43667;53.036;6.740;2023-04-03T11:36:09;1.98;;;0.63;;
57832;SDS011;43667;53.036;6.740;2023-04-03T11:38:45;2.05;;;0.60;;
57832;SDS011;43667;53.036;6.740;2023-04-03T11:41:12;5.97;;;1.33;;
57832;SDS011;43667;53.036;6.740;2023-04-03T11:43:42;1.95;;;0.70;;
57832;SDS011;43667;53.036;6.740;2023-04-03T11:46:40;2.38;;;0.70;;
57832;SDS011;43667;53.036;6.740;2023-04-03T12:05:56;1.70;;;0.70;;
57832;SDS011;43667;53.036;6.740;2023-04-03T12:16:26;5.50;;;1.02;;
57832;SDS011;43667;53.036;6.740;2023-04-03T12:19:00;3.20;;;0.73;;
57832;SDS011;43667;53.036;6.740;2023-04-03T12:29:20;2.50;;;0.60;;
57832;SDS011;43667;53.036;6.740;2023-04-03T12:37:39;2.20;;;0.70;;
57832;SDS011;43667;53.036;6.740;2023-04-03T12:40:25;2.63;;;0.77;;
57832;SDS011;43667;53.036;6.740;2023-04-03T12:45:41;4.03;;;0.65;;
57832;SDS011;43667;53.036;6.740;2023-04-03T12:48:16;2.25;;;0.95;;
57832;SDS011;43667;53.036;6.740;2023-04-03T12:50:46;3.72;;;0.90;;
57832;SDS011;43667;53.036;6.740;2023-04-03T12:53:13;3.45;;;0.70;;
57832;SDS011;43667;53.036;6.740;2023-04-03T12:55:44;1.40;;;0.80;;
57832;SDS011;43667;53.036;6.740;2023-04-03T12:58:17;2.38;;;0.80;;
57832;SDS011;43667;53.036;6.740;2023-04-03T13:01:12;2.60;;;0.70;;
57832;SDS011;43667;53.036;6.740;2023-04-03T13:03:40;2.03;;;0.90;;
57832;SDS011;43667;53.036;6.740;2023-04-03T13:06:30;2.28;;;0.80;;
57832;SDS011;43667;53.036;6.740;2023-04-03T13:09:05;3.10;;;0.98;;
57832;SDS011;43667;53.036;6.740;2023-04-03T13:11:43;3.05;;;0.80;;
57832;SDS011;43667;53.036;6.740;2023-04-03T13:14:21;3.55;;;0.93;;
57832;SDS011;43667;53.036;6.740;2023-04-03T13:16:57;1.98;;;0.77;;
57832;SDS011;43667;53.036;6.740;2023-04-03T13:19:35;1.70;;;0.75;;
57832;SDS011;43667;53.036;6.740;2023-04-03T13:22:02;2.58;;;0.88;;
57832;SDS011;43667;53.036;6.740;2023-04-03T13:24:34;8.95;;;0.95;;
57832;SDS011;43667;53.036;6.740;2023-04-03T13:27:02;2.33;;;0.90;;
57832;SDS011;43667;53.036;6.740;2023-04-03T13:29:32;1.92;;;0.63;;
57832;SDS011;43667;53.036;6.740;2023-04-03T13:32:01;2.77;;;0.77;;
57832;SDS011;43667;53.036;6.740;2023-04-03T13:34:35;1.25;;;0.47;;
57832;SDS011;43667;53.036;6.740;2023-04-03T13:37:04;2.85;;;1.00;;
57832;SDS011;43667;53.036;6.740;2023-04-03T13:39:31;2.60;;;0.90;;
57832;SDS011;43667;53.036;6.740;2023-04-03T13:41:59;1.95;;;0.57;;
57832;SDS011;43667;53.036;6.740;2023-04-03T13:44:35;3.08;;;0.90;;
57832;SDS011;43667;53.036;6.740;2023-04-03T13:49:37;3.25;;;0.70;;
57832;SDS011;43667;53.036;6.740;2023-04-03T13:52:21;2.67;;;0.88;;
57832;SDS011;43667;53.036;6.740;2023-04-03T13:54:47;3.17;;;0.82;;
57832;SDS011;43667;53.036;6.740;2023-04-03T13:57:18;3.63;;;1.15;;
57832;SDS011;43667;53.036;6.740;2023-04-03T13:59:43;1.80;;;0.70;;
57832;SDS011;43667;53.036;6.740;2023-04-03T14:02:14;2.92;;;0.70;;
57832;SDS011;43667;53.036;6.740;2023-04-03T14:05:01;3.85;;;0.82;;
57832;SDS011;43667;53.036;6.740;2023-04-03T14:07:29;0.93;;;0.55;;
57832;SDS011;43667;53.036;6.740;2023-04-03T14:09:56;3.25;;;0.80;;
57832;SDS011;43667;53.036;6.740;2023-04-03T14:12:30;1.20;;;0.50;;
57832;SDS011;43667;53.036;6.740;2023-04-03T14:15:02;1.60;;;0.57;;
57832;SDS011;43667;53.036;6.740;2023-04-03T14:17:49;1.42;;;0.52;;
57832;SDS011;43667;53.036;6.740;2023-04-03T14:20:17;1.73;;;0.63;;
57832;SDS011;43667;53.036;6.740;2023-04-03T14:22:44;1.60;;;0.60;;
57832;SDS011;43667;53.036;6.740;2023-04-03T14:25:10;2.17;;;0.90;;
57832;SDS011;43667;53.036;6.740;2023-04-03T14:27:37;2.47;;;0.90;;
57832;SDS011;43667;53.036;6.740;2023-04-03T14:30:07;3.83;;;0.68;;
57832;SDS011;43667;53.036;6.740;2023-04-03T14:32:38;2.22;;;0.65;;
57832;SDS011;43667;53.036;6.740;2023-04-03T14:35:04;3.80;;;0.60;;
57832;SDS011;43667;53.036;6.740;2023-04-03T14:37:31;2.00;;;0.60;;
57832;SDS011;43667;53.036;6.740;2023-04-03T14:39:57;3.15;;;0.80;;
57832;SDS011;43667;53.036;6.740;2023-04-03T14:42:27;1.38;;;0.60;;
57832;SDS011;43667;53.036;6.740;2023-04-03T14:44:55;2.05;;;0.60;;
57832;SDS011;43667;53.036;6.740;2023-04-03T14:47:27;2.60;;;0.82;;
57832;SDS011;43667;53.036;6.740;2023-04-03T14:49:54;2.40;;;0.73;;
57832;SDS011;43667;53.036;6.740;2023-04-03T14:52:25;1.45;;;0.50;;
57832;SDS011;43667;53.036;6.740;2023-04-03T14:54:53;3.63;;;0.95;;
57832;SDS011;43667;53.036;6.740;2023-04-03T14:57:19;1.98;;;0.70;;
57832;SDS011;43667;53.036;6.740;2023-04-03T14:59:48;2.15;;;0.68;;
57832;SDS011;43667;53.036;6.740;2023-04-03T15:02:34;1.88;;;0.80;;
57832;SDS011;43667;53.036;6.740;2023-04-03T15:05:03;1.42;;;0.50;;
57832;SDS011;43667;53.036;6.740;2023-04-03T15:07:35;3.42;;;0.88;;
57832;SDS011;43667;53.036;6.740;2023-04-03T15:10:06;2.58;;;0.80;;
57832;SDS011;43667;53.036;6.740;2023-04-03T15:12:39;1.67;;;0.60;;
57832;SDS011;43667;53.036;6.740;2023-04-03T15:15:05;1.73;;;0.50;;
57832;SDS011;43667;53.036;6.740;2023-04-03T15:17:31;2.05;;;0.60;;
57832;SDS011;43667;53.036;6.740;2023-04-03T15:19:58;1.80;;;0.40;;
57832;SDS011;43667;53.036;6.740;2023-04-03T15:22:24;2.38;;;0.70;;
57832;SDS011;43667;53.036;6.740;2023-04-03T15:24:50;1.85;;;0.70;;
57832;SDS011;43667;53.036;6.740;2023-04-03T15:27:19;1.25;;;0.50;;
57832;SDS011;43667;53.036;6.740;2023-04-03T15:29:44;2.42;;;0.73;;
57832;SDS011;43667;53.036;6.740;2023-04-03T15:32:11;2.10;;;0.55;;
57832;SDS011;43667;53.036;6.740;2023-04-03T15:34:37;1.55;;;0.68;;
57832;SDS011;43667;53.036;6.740;2023-04-03T15:37:03;2.45;;;0.60;;
57832;SDS011;43667;53.036;6.740;2023-04-03T15:39:30;3.00;;;0.80;;
57832;SDS011;43667;53.036;6.740;2023-04-03T15:41:55;2.03;;;0.70;;
57832;SDS011;43667;53.036;6.740;2023-04-03T15:44:24;3.10;;;0.80;;
57832;SDS011;43667;53.036;6.740;2023-04-03T15:46:50;2.50;;;0.82;;
57832;SDS011;43667;53.036;6.740;2023-04-03T15:49:16;1.73;;;0.77;;
57832;SDS011;43667;53.036;6.740;2023-04-03T15:51:43;3.45;;;0.98;;
57832;SDS011;43667;53.036;6.740;2023-04-03T15:54:09;2.17;;;0.88;;
57832;SDS011;43667;53.036;6.740;2023-04-03T15:56:34;2.40;;;1.13;;
57832;SDS011;43667;53.036;6.740;2023-04-03T15:59:00;4.70;;;0.60;;
57832;SDS011;43667;53.036;6.740;2023-04-03T16:01:26;1.50;;;0.60;;
57832;SDS011;43667;53.036;6.740;2023-04-03T16:03:51;2.42;;;0.70;;
57832;SDS011;43667;53.036;6.740;2023-04-03T16:06:17;2.50;;;0.80;;
57832;SDS011;43667;53.036;6.740;2023-04-03T16:08:43;2.30;;;0.63;;
57832;SDS011;43667;53.036;6.740;2023-04-03T16:11:09;2.05;;;0.63;;
57832;SDS011;43667;53.036;6.740;2023-04-03T16:13:35;2.55;;;0.70;;
57832;SDS011;43667;53.036;6.740;2023-04-03T16:16:01;2.40;;;0.77;;
57832;SDS011;43667;53.036;6.740;2023-04-03T16:18:27;1.95;;;0.60;;
57832;SDS011;43667;53.036;6.740;2023-04-03T16:20:53;1.95;;;0.60;;
57832;SDS011;43667;53.036;6.740;2023-04-03T16:23:19;2.80;;;0.60;;
57832;SDS011;43667;53.036;6.740;2023-04-03T16:25:45;2.92;;;0.52;;
57832;SDS011;43667;53.036;6.740;2023-04-03T16:28:15;2.05;;;0.57;;